createdAt,value
2023-04-02T00:00:14.390Z,98717.69
2023-04-02T00:03:05.283Z,98718.05
2023-04-02T00:05:51.792Z,98723.86
2023-04-02T00:08:38.369Z,98724.94
2023-04-02T00:11:08.463Z,98726.31
2023-04-02T00:13:43.492Z,98726.95
2023-04-02T00:16:16.872Z,98732.34
2023-04-02T00:18:50.281Z,98731.76
2023-04-02T00:21:24.177Z,98734.33
2023-04-02T00:23:54.740Z,98737.96
2023-04-02T00:26:28.953Z,98741.37
2023-04-02T00:28:58.265Z,98744.15
2023-04-02T00:31:27.535Z,98745.34
2023-04-02T00:33:57.041Z,98747.25
2023-04-02T00:36:29.479Z,98747.74
2023-04-02T00:39:00.053Z,98750.98
2023-04-02T00:41:35.475Z,98750.58
2023-04-02T00:44:05.800Z,98749.95
2023-04-02T00:46:46.189Z,98747.96
2023-04-02T00:49:22.506Z,98750.08
2023-04-02T00:51:54.982Z,98749.77
2023-04-02T00:54:27.590Z,98748.63
2023-04-02T00:56:58.367Z,98753.05
2023-04-02T00:59:31.023Z,98756.35
2023-04-02T01:02:21.885Z,98755.83
2023-04-02T01:04:54.140Z,98761.71
2023-04-02T01:07:34.875Z,98759.77
2023-04-02T01:10:25.786Z,98763.20
2023-04-02T01:13:07.923Z,98766.77
2023-04-02T01:15:42.043Z,98767.10
2023-04-02T01:18:30.600Z,98769.83
2023-04-02T01:21:15.449Z,98770.70
2023-04-02T01:23:58.011Z,98771.83
2023-04-02T01:26:47.315Z,98776.69
2023-04-02T01:29:19.269Z,98776.02
2023-04-02T01:31:51.357Z,98779.70
2023-04-02T01:34:20.976Z,98778.51
2023-04-02T01:37:02.203Z,98783.95
2023-04-02T01:39:40.643Z,98788.17
2023-04-02T01:42:15.914Z,98792.67
2023-04-02T01:44:48.689Z,98796.73
2023-04-02T01:47:19.519Z,98796.05
2023-04-02T01:49:48.395Z,98796.73
2023-04-02T01:52:25.987Z,98795.69
2023-04-02T01:54:56.398Z,98789.51
2023-04-02T01:57:26.788Z,98792.48
2023-04-02T01:59:55.760Z,98789.76
2023-04-02T02:02:24.867Z,98789.79
2023-04-02T02:04:53.915Z,98792.83
2023-04-02T02:07:23.540Z,98795.70
2023-04-02T02:09:54.904Z,98799.02
2023-04-02T02:12:23.934Z,98810.98
2023-04-02T02:14:52.794Z,98812.06
2023-04-02T02:17:33.170Z,98818.42
2023-04-02T02:20:06.270Z,98820.39
2023-04-02T02:22:38.222Z,98826.64
2023-04-02T02:25:13.441Z,98830.54
2023-04-02T02:27:49.763Z,98834.11
2023-04-02T02:30:24.290Z,98833.52
2023-04-02T02:33:00.428Z,98836.54
2023-04-02T02:35:35.185Z,98841.30
2023-04-02T02:38:35.248Z,98841.34
2023-04-02T02:44:03.567Z,98854.91
2023-04-02T02:46:34.119Z,98859.38
2023-04-02T02:49:04.760Z,98862.08
2023-04-02T02:51:44.102Z,98862.81
2023-04-02T02:54:15.144Z,98865.45
2023-04-02T02:56:47.509Z,98871.46
2023-04-02T02:59:17.946Z,98876.33
2023-04-02T03:01:47.665Z,98884.16
2023-04-02T03:04:22.401Z,98888.16
2023-04-02T03:06:53.472Z,98899.22
2023-04-02T03:09:33.706Z,98896.19
2023-04-02T03:12:13.724Z,98902.09
2023-04-02T03:14:46.822Z,98901.89
2023-04-02T03:17:20.865Z,98904.89
2023-04-02T03:19:55.942Z,98905.36
2023-04-02T03:22:31.473Z,98909.20
2023-04-02T03:25:06.382Z,98914.02
2023-04-02T03:27:39.797Z,98919.34
2023-04-02T03:30:26.490Z,98922.36
2023-04-02T03:33:01.595Z,98928.08
2023-04-02T03:35:38.327Z,98933.26
2023-04-02T03:38:14.966Z,98935.75
2023-04-02T03:40:55.294Z,98944.24
2023-04-02T03:43:26.823Z,98948.83
2023-04-02T03:46:02.939Z,98953.84
2023-04-02T03:48:38.648Z,98959.27
2023-04-02T03:51:14.399Z,98963.48
2023-04-02T03:53:44.835Z,98974.35
2023-04-02T03:56:28.092Z,98980.33
2023-04-02T03:59:06.691Z,98986.23
2023-04-02T04:01:42.258Z,98987.39
2023-04-02T04:04:16.040Z,98995.84
2023-04-02T04:06:48.070Z,99005.48
2023-04-02T04:09:24.081Z,99011.33
2023-04-02T04:11:59.889Z,99014.63
2023-04-02T04:14:32.506Z,99020.09
2023-04-02T04:17:13.297Z,99023.88
2023-04-02T04:19:45.961Z,99027.65
2023-04-02T04:22:19.587Z,99035.16
2023-04-02T04:24:50.580Z,99038.06
2023-04-02T04:27:34.043Z,99041.86
2023-04-02T04:30:07.038Z,99047.89
2023-04-02T04:32:49.514Z,99057.63
2023-04-02T04:35:27.332Z,99061.54
2023-04-02T04:37:59.831Z,99060.89
2023-04-02T04:40:32.674Z,99064.45
2023-04-02T04:43:05.417Z,99070.91
2023-04-02T04:45:43.815Z,99078.31
2023-04-02T04:48:19.085Z,99081.67
2023-04-02T04:50:53.401Z,99084.27
2023-04-02T04:53:24.928Z,99091.73
2023-04-02T04:55:56.988Z,99097.42
2023-04-02T04:58:35.402Z,99100.48
2023-04-02T05:01:11.812Z,99106.41
2023-04-02T05:03:47.338Z,99109.91
2023-04-02T05:06:32.536Z,99123.88
2023-04-02T05:09:07.694Z,99123.77
2023-04-02T05:11:42.435Z,99127.02
2023-04-02T05:14:21.408Z,99135.11
2023-04-02T05:16:56.179Z,99141.50
2023-04-02T05:19:34.358Z,99140.02
2023-04-02T05:22:13.660Z,99148.27
2023-04-02T05:24:51.779Z,99154.41
2023-04-02T05:27:29.289Z,99159.92
2023-04-02T05:30:05.484Z,99162.11
2023-04-02T05:32:40.703Z,99167.08
2023-04-02T05:35:16.607Z,99170.39
2023-04-02T05:37:46.449Z,99175.54
2023-04-02T05:40:23.339Z,99182.92
2023-04-02T05:42:52.631Z,99186.95
2023-04-02T05:45:28.576Z,99195.61
2023-04-02T05:48:02.112Z,99200.83
2023-04-02T05:50:40.215Z,99209.23
2023-04-02T05:53:19.980Z,99214.77
2023-04-02T05:55:57.838Z,99215.40
2023-04-02T05:58:36.708Z,99218.05
2023-04-02T06:01:33.410Z,99225.45
2023-04-02T06:04:13.586Z,99230.93
2023-04-02T06:06:48.966Z,99238.17
2023-04-02T06:09:24.297Z,99243.89
2023-04-02T06:12:02.168Z,99249.33
2023-04-02T06:14:31.495Z,99251.60
2023-04-02T06:17:00.531Z,99257.06
2023-04-02T06:19:33.808Z,99261.23
2023-04-02T06:22:16.014Z,99269.02
2023-04-02T06:24:45.598Z,99276.45
2023-04-02T06:27:19.559Z,99283.66
2023-04-02T06:29:52.369Z,99289.90
2023-04-02T06:32:26.885Z,99293.56
2023-04-02T06:34:56.301Z,99298.00
2023-04-02T06:37:29.816Z,99305.55
2023-04-02T06:40:25.726Z,99308.20
2023-04-02T06:42:59.216Z,99309.81
2023-04-02T06:45:41.815Z,99316.20
2023-04-02T06:48:25.180Z,99316.21
2023-04-02T06:51:02.059Z,99323.84
2023-04-02T06:53:35.653Z,99329.63
2023-04-02T06:56:12.995Z,99332.19
2023-04-02T06:58:42.662Z,99337.02
2023-04-02T07:01:17.805Z,99340.84
2023-04-02T07:03:47.031Z,99344.33
2023-04-02T07:06:26.736Z,99350.80
2023-04-02T07:08:59.092Z,99358.35
2023-04-02T07:11:28.232Z,99362.73
2023-04-02T07:13:59.968Z,99361.36
2023-04-02T07:16:31.135Z,99369.20
2023-04-02T07:19:00.303Z,99373.13
2023-04-02T07:21:32.512Z,99372.53
2023-04-02T07:24:01.325Z,99374.39
2023-04-02T07:26:30.403Z,99377.67
2023-04-02T07:28:59.454Z,99384.89
2023-04-02T07:31:29.016Z,99386.79
2023-04-02T07:33:59.658Z,99388.30
2023-04-02T07:36:29.657Z,99389.25
2023-04-02T07:38:58.703Z,99393.64
2023-04-02T07:41:27.687Z,99395.86
2023-04-02T07:43:56.349Z,99400.61
2023-04-02T07:46:25.340Z,99405.38
2023-04-02T07:48:54.218Z,99409.36
2023-04-02T07:51:25.293Z,99408.51
2023-04-02T07:53:55.297Z,99418.63
2023-04-02T07:56:25.302Z,99422.79
2023-04-02T07:58:54.352Z,99429.59
2023-04-02T08:01:25.711Z,99431.52
2023-04-02T08:03:56.515Z,99435.62
2023-04-02T08:06:26.053Z,99441.30
2023-04-02T08:08:55.419Z,99445.02
2023-04-02T08:11:24.478Z,99448.36
2023-04-02T08:13:53.481Z,99452.20
2023-04-02T08:16:24.674Z,99450.30
2023-04-02T08:18:53.573Z,99453.91
2023-04-02T08:21:22.406Z,99460.09
2023-04-02T08:23:51.397Z,99466.50
2023-04-02T08:26:20.392Z,99467.55
2023-04-02T08:28:49.200Z,99469.55
2023-04-02T08:31:18.504Z,99473.55
2023-04-02T08:33:47.249Z,99472.67
2023-04-02T08:36:17.659Z,99476.22
2023-04-02T08:38:46.989Z,99479.77
2023-04-02T08:41:22.533Z,99483.26
2023-04-02T08:44:07.718Z,99486.45
2023-04-02T08:46:43.478Z,99487.50
2023-04-02T08:49:16.971Z,99488.09
2023-04-02T08:51:48.544Z,99493.08
2023-04-02T08:54:24.354Z,99494.85
2023-04-02T08:56:59.421Z,99497.51
2023-04-02T08:59:33.638Z,99500.17
2023-04-02T09:02:17.464Z,99505.21
2023-04-02T09:04:46.933Z,99507.75
2023-04-02T09:07:17.377Z,99509.55
2023-04-02T09:09:49.630Z,99514.95
2023-04-02T09:12:23.647Z,99518.02
2023-04-02T09:15:05.654Z,99514.39
2023-04-02T09:17:42.654Z,99524.88
2023-04-02T09:20:18.576Z,99525.16
2023-04-02T09:22:50.889Z,99529.48
2023-04-02T09:25:22.354Z,99528.20
2023-04-02T09:27:53.120Z,99532.55
2023-04-02T09:30:33.011Z,99536.58
2023-04-02T09:33:06.866Z,99537.36
2023-04-02T09:35:53.181Z,99544.10
2023-04-02T09:38:24.264Z,99547.64
2023-04-02T09:40:59.227Z,99550.86
2023-04-02T09:43:29.654Z,99560.34
2023-04-02T09:46:01.484Z,99562.91
2023-04-02T09:48:32.619Z,99572.48
2023-04-02T09:51:16.093Z,99573.81
2023-04-02T09:53:47.223Z,99577.99
2023-04-02T09:56:19.001Z,99581.49
2023-04-02T09:59:03.600Z,99586.13
2023-04-02T10:01:34.097Z,99592.34
2023-04-02T10:04:06.754Z,99589.20
2023-04-02T10:06:35.839Z,99595.98
2023-04-02T10:09:25.715Z,99595.88
2023-04-02T10:11:55.639Z,99597.73
2023-04-02T10:14:28.180Z,99597.38
2023-04-02T10:17:01.419Z,99603.38
2023-04-02T10:19:34.412Z,99609.08
2023-04-02T10:22:08.965Z,99614.25
2023-04-02T10:24:37.812Z,99620.82
2023-04-02T10:27:18.060Z,99621.53
2023-04-02T10:30:14.184Z,99625.49
2023-04-02T10:32:49.078Z,99629.06
2023-04-02T10:35:26.990Z,99630.15
2023-04-02T10:38:13.259Z,99632.77
2023-04-02T10:40:46.492Z,99631.91
2023-04-02T10:43:43.722Z,99633.20
2023-04-02T10:46:21.378Z,99634.02
2023-04-02T10:49:00.472Z,99638.61
2023-04-02T10:51:37.060Z,99638.51
2023-04-02T10:54:22.169Z,99638.73
2023-04-02T10:56:52.922Z,99641.29
2023-04-02T10:59:27.517Z,99645.38
2023-04-02T11:02:00.303Z,99653.41
2023-04-02T11:04:36.597Z,99657.00
2023-04-02T11:07:15.014Z,99659.23
2023-04-02T11:09:49.397Z,99668.52
2023-04-02T11:12:25.236Z,99669.10
2023-04-02T11:14:55.959Z,99670.52
2023-04-02T11:17:25.279Z,99675.08
2023-04-02T11:19:55.686Z,99677.20
2023-04-02T11:22:25.261Z,99675.77
2023-04-02T11:24:56.000Z,99681.31
2023-04-02T11:27:27.815Z,99685.10
2023-04-02T11:30:05.528Z,99687.13
2023-04-02T11:32:41.981Z,99690.49
2023-04-02T11:35:35.792Z,99700.89
2023-04-02T11:38:39.161Z,99700.67
2023-04-02T11:41:07.986Z,99703.25
2023-04-02T11:43:59.777Z,99708.50
2023-04-02T11:46:45.889Z,99709.73
2023-04-02T11:49:56.346Z,99712.53
2023-04-02T11:52:28.760Z,99716.80
2023-04-02T11:55:23.751Z,99721.93
2023-04-02T11:58:01.771Z,99721.55
2023-04-02T12:01:11.908Z,99729.72
2023-04-02T12:03:58.123Z,99730.96
2023-04-02T12:06:39.221Z,99730.90
2023-04-02T12:09:19.165Z,99737.46
2023-04-02T12:11:51.926Z,99739.48
2023-04-02T12:14:46.201Z,99736.80
2023-04-02T12:17:24.773Z,99742.59
2023-04-02T12:19:56.197Z,99739.69
2023-04-02T12:22:27.569Z,99747.95
2023-04-02T12:24:59.631Z,99749.29
2023-04-02T12:27:28.868Z,99751.99
2023-04-02T12:30:13.135Z,99753.67
2023-04-02T12:32:42.708Z,99759.13
2023-04-02T12:35:29.283Z,99758.15
2023-04-02T12:37:58.437Z,99762.30
2023-04-02T12:40:29.153Z,99766.43
2023-04-02T12:42:58.730Z,99771.31
2023-04-02T12:45:31.799Z,99777.91
2023-04-02T12:48:03.881Z,99773.65
2023-04-02T12:50:34.229Z,99775.49
2023-04-02T12:53:03.718Z,99779.59
2023-04-02T12:55:32.987Z,99780.89
2023-04-02T12:58:02.370Z,99782.67
2023-04-02T13:00:35.874Z,99782.84
2023-04-02T13:03:22.076Z,99787.83
2023-04-02T13:05:56.759Z,99789.50
2023-04-02T13:08:29.150Z,99788.05
2023-04-02T13:11:00.892Z,99792.63
2023-04-02T13:13:35.363Z,99796.33
2023-04-02T13:16:07.974Z,99797.10
2023-04-02T13:18:38.410Z,99800.65
2023-04-02T13:21:24.034Z,99806.73
2023-04-02T13:23:55.929Z,99807.35
2023-04-02T13:26:27.007Z,99809.60
2023-04-02T13:29:01.448Z,99810.27
2023-04-02T13:31:32.006Z,99815.04
2023-04-02T13:34:01.659Z,99815.33
2023-04-02T13:36:30.618Z,99814.00
2023-04-02T13:38:59.460Z,99814.41
2023-04-02T13:41:30.443Z,99816.52
2023-04-02T13:44:02.859Z,99826.88
2023-04-02T13:46:33.708Z,99832.23
2023-04-02T13:49:02.514Z,99836.62
2023-04-02T13:51:37.768Z,99833.80
2023-04-02T13:54:17.088Z,99839.46
2023-04-02T13:56:46.246Z,99839.02
2023-04-02T13:59:15.665Z,99845.44
2023-04-02T14:01:46.959Z,99845.62
2023-04-02T14:04:20.053Z,99850.71
2023-04-02T14:07:26.407Z,99851.69
2023-04-02T14:10:21.472Z,99852.92
2023-04-02T14:13:08.886Z,99858.36
2023-04-02T14:15:52.896Z,99856.52
2023-04-02T14:18:38.842Z,99856.97
2023-04-02T14:21:17.478Z,99860.89
2023-04-02T14:23:59.104Z,99858.47
2023-04-02T14:26:39.017Z,99862.73
2023-04-02T14:29:13.287Z,99862.13
2023-04-02T14:31:46.982Z,99869.57
2023-04-02T14:34:22.918Z,99870.66
2023-04-02T14:37:02.506Z,99876.20
2023-04-02T14:39:42.564Z,99874.64
2023-04-02T14:42:16.866Z,99885.42
2023-04-02T14:44:51.572Z,99891.98
2023-04-02T14:47:25.627Z,99889.63
2023-04-02T14:50:02.716Z,99891.55
2023-04-02T14:52:35.053Z,99895.52
2023-04-02T14:55:10.335Z,99897.30
2023-04-02T14:57:41.853Z,99897.23
2023-04-02T15:00:27.284Z,99895.27
2023-04-02T15:03:03.097Z,99893.91
2023-04-02T15:05:40.884Z,99896.05
2023-04-02T15:08:19.809Z,99901.15
2023-04-02T15:11:01.997Z,99901.80
2023-04-02T15:13:38.535Z,99908.11
2023-04-02T15:16:13.232Z,99905.02
2023-04-02T15:18:42.055Z,99911.13
2023-04-02T15:21:30.151Z,99915.48
2023-04-02T15:24:07.692Z,99922.73
2023-04-02T15:26:48.334Z,99925.11
2023-04-02T15:29:29.561Z,99935.21
2023-04-02T15:32:07.908Z,99936.77
2023-04-02T15:34:42.777Z,99938.09
2023-04-02T15:37:23.743Z,99943.75
2023-04-02T15:40:29.722Z,99946.46
2023-04-02T15:43:06.783Z,99947.59
2023-04-02T15:46:08.313Z,99945.38
2023-04-02T15:49:07.843Z,99944.38
2023-04-02T15:51:50.130Z,99944.11
2023-04-02T15:54:43.940Z,99946.23
2023-04-02T15:57:26.543Z,99946.45
2023-04-02T16:00:26.056Z,99956.08
2023-04-02T16:03:06.333Z,99963.27
2023-04-02T16:05:42.153Z,99967.69
2023-04-02T16:08:37.260Z,99977.67
2023-04-02T16:11:17.614Z,99982.98
2023-04-02T16:13:47.858Z,99984.39
2023-04-02T16:16:41.717Z,99993.69
2023-04-02T16:19:22.618Z,99994.69
2023-04-02T16:22:03.443Z,99997.05
2023-04-02T16:24:32.214Z,100000.41
2023-04-02T16:27:17.728Z,99998.34
2023-04-02T16:30:02.905Z,100000.01
2023-04-02T16:32:52.528Z,100001.33
2023-04-02T16:35:42.718Z,100001.27
2023-04-02T16:38:31.296Z,100004.46
2023-04-02T16:41:12.789Z,100014.96
2023-04-02T16:43:50.450Z,100013.60
2023-04-02T16:49:07.813Z,100018.77
2023-04-02T16:51:46.972Z,100021.58
2023-04-02T16:54:24.226Z,100022.64
2023-04-02T16:57:11.422Z,100024.59
2023-04-02T16:59:49.578Z,100027.20
2023-04-02T17:02:31.011Z,100034.89
2023-04-02T17:05:11.356Z,100035.56
2023-04-02T17:07:48.393Z,100038.96
2023-04-02T17:10:40.388Z,100043.98
2023-04-02T17:13:29.002Z,100047.31
2023-04-02T17:16:14.133Z,100047.44
2023-04-02T17:18:46.105Z,100050.55
2023-04-02T17:21:19.303Z,100051.64
2023-04-02T17:23:56.371Z,100054.85
2023-04-02T17:26:28.976Z,100060.52
2023-04-02T17:29:01.289Z,100064.78
2023-04-02T17:31:35.894Z,100066.35
2023-04-02T17:34:14.241Z,100070.94
2023-04-02T17:36:54.423Z,100069.57
2023-04-02T17:39:29.448Z,100072.04
2023-04-02T17:42:15.682Z,100073.66
2023-04-02T17:45:01.544Z,100078.81
2023-04-02T17:47:47.905Z,100083.77
2023-04-02T17:50:39.372Z,100087.66
2023-04-02T17:53:19.935Z,100090.48
2023-04-02T17:56:33.299Z,100095.83
2023-04-02T17:59:51.337Z,100099.96
2023-04-02T18:02:57.751Z,100104.68
2023-04-02T18:09:26.549Z,100113.52
2023-04-02T18:12:05.293Z,100119.16
2023-04-02T18:15:09.000Z,100124.64
2023-04-02T18:17:54.565Z,100127.82
2023-04-02T18:20:45.432Z,100129.77
2023-04-02T18:23:49.787Z,100133.27
2023-04-02T18:26:34.462Z,100136.64
2023-04-02T18:32:33.670Z,100147.12
2023-04-02T18:35:22.406Z,100151.05
2023-04-02T18:38:36.903Z,100153.63
2023-04-02T18:41:19.815Z,100157.66
2023-04-02T18:44:06.508Z,100160.33
2023-04-02T18:46:41.917Z,100162.90
2023-04-02T18:49:26.387Z,100166.32
2023-04-02T18:52:02.313Z,100166.02
2023-04-02T18:54:37.236Z,100166.78
2023-04-02T18:57:13.888Z,100167.74
2023-04-02T19:00:05.413Z,100177.63
2023-04-02T19:02:43.163Z,100175.68
2023-04-02T19:05:26.413Z,100180.76
2023-04-02T19:08:09.041Z,100176.51
2023-04-02T19:10:42.286Z,100172.38
2023-04-02T19:13:17.066Z,100175.56
2023-04-02T19:16:16.939Z,100178.48
2023-04-02T19:18:59.961Z,100186.15
2023-04-02T19:21:37.819Z,100191.95
2023-04-02T19:24:29.065Z,100195.52
2023-04-02T19:27:05.865Z,100202.19
2023-04-02T19:29:52.504Z,100205.88
2023-04-02T19:32:33.657Z,100205.11
2023-04-02T19:35:15.497Z,100206.48
2023-04-02T19:37:57.058Z,100212.84
2023-04-02T19:40:40.256Z,100210.48
2023-04-02T19:43:12.801Z,100213.30
2023-04-02T19:45:46.541Z,100211.90
2023-04-02T19:48:19.492Z,100211.77
2023-04-02T19:51:09.163Z,100214.77
2023-04-02T19:53:39.058Z,100214.61
2023-04-02T19:56:07.892Z,100213.30
2023-04-02T19:58:37.051Z,100216.84
2023-04-02T20:01:06.014Z,100217.36
2023-04-02T20:03:35.668Z,100220.37
2023-04-02T20:06:10.083Z,100223.89
2023-04-02T20:08:39.209Z,100223.55
2023-04-02T20:11:07.937Z,100224.99
2023-04-02T20:13:36.658Z,100227.30
2023-04-02T20:16:07.176Z,100228.44
2023-04-02T20:18:36.897Z,100234.58
2023-04-02T20:21:07.209Z,100233.21
2023-04-02T20:23:37.153Z,100237.80
2023-04-02T20:26:06.278Z,100239.35
2023-04-02T20:28:35.125Z,100240.64
2023-04-02T20:31:09.239Z,100245.59
2023-04-02T20:33:38.542Z,100248.36
2023-04-02T20:36:09.375Z,100255.42
2023-04-02T20:38:38.386Z,100254.77
2023-04-02T20:41:09.153Z,100258.45
2023-04-02T20:43:39.924Z,100261.43
2023-04-02T20:46:11.676Z,100258.25
2023-04-02T20:48:41.153Z,100263.20
2023-04-02T20:51:13.890Z,100264.65
2023-04-02T20:53:42.627Z,100264.90
2023-04-02T20:56:13.101Z,100270.35
2023-04-02T20:58:42.719Z,100273.98
2023-04-02T21:01:15.639Z,100277.40
2023-04-02T21:03:44.905Z,100276.09
2023-04-02T21:06:14.955Z,100278.42
2023-04-02T21:08:44.331Z,100280.91
2023-04-02T21:11:13.148Z,100281.86
2023-04-02T21:13:43.404Z,100286.27
2023-04-02T21:16:15.833Z,100283.17
2023-04-02T21:18:45.343Z,100289.58
2023-04-02T21:21:14.943Z,100289.80
2023-04-02T21:23:45.373Z,100291.60
2023-04-02T21:26:16.146Z,100288.52
2023-04-02T21:28:45.654Z,100293.48
2023-04-02T21:31:15.788Z,100296.70
2023-04-02T21:33:47.111Z,100297.32
2023-04-02T21:36:17.964Z,100300.23
2023-04-02T21:38:48.404Z,100307.33
2023-04-02T21:41:19.377Z,100306.85
2023-04-02T21:43:48.056Z,100309.71
2023-04-02T21:46:18.319Z,100316.23
2023-04-02T21:48:48.013Z,100315.89
2023-04-02T21:51:19.055Z,100319.83
2023-04-02T21:53:48.198Z,100316.69
2023-04-02T21:56:18.474Z,100317.63
2023-04-02T21:58:48.124Z,100317.81
2023-04-02T22:01:26.524Z,100316.98
2023-04-02T22:03:57.909Z,100319.45
2023-04-02T22:06:28.676Z,100321.23
2023-04-02T22:08:59.728Z,100323.55
2023-04-02T22:11:30.776Z,100322.86
2023-04-02T22:14:01.291Z,100324.33
2023-04-02T22:16:31.455Z,100331.36
2023-04-02T22:19:03.601Z,100331.90
2023-04-02T22:21:32.542Z,100334.57
2023-04-02T22:24:02.340Z,100336.55
2023-04-02T22:26:32.570Z,100333.73
2023-04-02T22:29:01.221Z,100338.66
2023-04-02T22:31:32.507Z,100339.35
2023-04-02T22:34:03.085Z,100339.88
2023-04-02T22:36:32.600Z,100341.81
2023-04-02T22:39:04.659Z,100339.56
2023-04-02T22:41:33.884Z,100342.20
2023-04-02T22:44:03.163Z,100340.52
2023-04-02T22:46:32.164Z,100339.02
2023-04-02T22:49:00.992Z,100340.59
2023-04-02T22:51:31.839Z,100347.30
2023-04-02T22:54:00.596Z,100347.17
2023-04-02T22:56:32.462Z,100346.02
2023-04-02T22:59:01.190Z,100345.35
2023-04-02T23:01:32.500Z,100351.70
2023-04-02T23:04:01.596Z,100350.48
2023-04-02T23:06:30.446Z,100350.34
2023-04-02T23:08:59.214Z,100350.70
2023-04-02T23:11:28.164Z,100350.92
2023-04-02T23:13:58.229Z,100349.88
2023-04-02T23:16:29.237Z,100347.46
2023-04-02T23:18:58.547Z,100353.14
2023-04-02T23:21:27.538Z,100351.63
2023-04-02T23:23:56.323Z,100353.95
2023-04-02T23:26:29.980Z,100358.20
2023-04-02T23:28:59.333Z,100365.23
2023-04-02T23:31:28.716Z,100359.11
2023-04-02T23:33:57.456Z,100363.02
2023-04-02T23:36:28.263Z,100361.85
2023-04-02T23:39:00.470Z,100362.74
2023-04-02T23:41:30.411Z,100361.00
2023-04-02T23:43:59.547Z,100364.71
2023-04-02T23:46:29.208Z,100365.14
2023-04-02T23:48:59.021Z,100364.63
2023-04-02T23:51:28.967Z,100367.77
2023-04-02T23:53:58.039Z,100367.12
2023-04-02T23:56:27.069Z,100366.08
2023-04-02T23:58:55.793Z,100367.52
